Amalia — SXMT — position and weather

sailwx.info

Track history (hours):
 
Tides and Currents Weather Stations Pressure Air Temp Water Temp Dewpoint Dewpoint Depression Visibility Wind Speed Wind Dir Waves Ship Positions

Amalia

Last reported at 2014-Oct-31 17:31 UTC. Time now 2014-Oct-31 18:04 UTC.
Position S 23°59' W 046°17'.

Length 225 m; draft 6.2 m.

Type: Cargo ship. MMSI: 239652000.

Date/timePositionNaut miles runAvg speedWind from/ knotsBaromVisibWave heightAir tempDewpointWater temp
2014-Oct-31 17:31S 23°59' W 046°17'0 0.0
2014-Oct-31 16:25S 23°59' W 046°17'0 0.0
2014-Oct-31 15:31S 23°59' W 046°17'0 0.0
2014-Oct-31 14:31S 23°59' W 046°17'0 0.0
2014-Oct-31 13:28S 23°59' W 046°17'0 0.0
2014-Oct-31 12:31S 23°59' W 046°17'0 0.0
2014-Oct-31 11:31S 23°59' W 046°17'0 0.0
2014-Oct-31 10:31S 23°59' W 046°17'0 0.0
2014-Oct-31 09:31S 23°59' W 046°17'0 0.0
2014-Oct-31 08:31S 23°59' W 046°17'0 0.0
2014-Oct-31 07:31S 23°59' W 046°17'0 0.0
2014-Oct-31 06:31S 23°59' W 046°17'6 1.5
2014-Oct-31 02:33S 24°03' W 046°21'2 2.1
2014-Oct-31 01:27S 24°06' W 046°20'0 0.0
2014-Oct-30 09:24S 24°05' W 046°20'0 0.0
2014-Oct-30 07:12S 24°05' W 046°20'0 0.0
2014-Oct-30 04:12S 24°06' W 046°20'0 0.0
2014-Oct-30 01:12S 24°05' W 046°20'0 0.0
2014-Oct-29 17:28S 24°05' W 046°20'0 0.0
2014-Oct-29 14:22S 24°05' W 046°20'0 0.0
2014-Oct-29 12:28S 24°06' W 046°20'0 0.0
2014-Oct-29 11:22S 24°06' W 046°20'0 0.0
2014-Oct-29 10:16S 24°06' W 046°20'0 0.0
2014-Oct-29 09:28S 24°06' W 046°20'0 0.0
2014-Oct-29 08:28S 24°06' W 046°20'0 0.0
2014-Oct-29 07:22S 24°06' W 046°20'0 0.0
2014-Oct-29 04:22S 24°05' W 046°20'0 0.0
2014-Oct-29 03:22S 24°05' W 046°20'0 0.0
2014-Oct-29 02:28S 24°05' W 046°20'0 0.0
2014-Oct-28 21:07S 24°05' W 046°20'0 0.0
2014-Oct-28 20:13S 24°05' W 046°20'0 0.0
2014-Oct-28 15:07S 24°05' W 046°20'0 0.0
2014-Oct-28 10:10S 24°05' W 046°20'0 0.0
2014-Oct-28 07:22S 24°05' W 046°20'0 0.0
2014-Oct-28 06:31S 24°05' W 046°20'0 0.0
2014-Oct-28 04:28S 24°05' W 046°20'0 0.0
2014-Oct-28 03:22S 24°05' W 046°20'0 0.0
2014-Oct-28 00:10S 24°05' W 046°20'0 0.0
2014-Oct-27 21:28S 24°05' W 046°20'4 4.4
2014-Oct-27 20:33S 24°01' W 046°20'0 0.2
2014-Oct-27 19:32S 24°01' W 046°20'0 0.0
2014-Oct-27 18:32S 24°01' W 046°20'0 0.0
2014-Oct-27 17:32S 24°01' W 046°20'1 0.7
2014-Oct-27 16:33S 24°02' W 046°20'3 3.0
2014-Oct-27 15:33S 24°05' W 046°22'3 2.4
2014-Oct-27 14:27S 24°07' W 046°21'0 0.0
2014-Oct-27 13:15S 24°07' W 046°21'0 0.1
2014-Oct-27 12:21S 24°07' W 046°21'0 0.2
2014-Oct-27 11:27S 24°08' W 046°21'0 0.0
2014-Oct-27 10:27S 24°07' W 046°21'0 0.1
2014-Oct-27 09:27S 24°08' W 046°21'0 0.0
2014-Oct-27 08:21S 24°08' W 046°21'2 2.1
2014-Oct-27 07:33S 24°08' W 046°23'9 8.0
2014-Oct-27 06:29S 24°17' W 046°23'  
Track history (hours):
 
Tides and Currents Weather Stations Pressure Air Temp Water Temp Dewpoint Dewpoint Depression Visibility Wind Speed Wind Dir Waves Ship Positions

Amalia

Last reported at 2014-Oct-31 17:31 UTC. Time now 2014-Oct-31 18:04 UTC.
Position S 23°59' W 046°17'.

Length 225 m; draft 6.2 m.

Type: Cargo ship. MMSI: 239652000.

Date/timePositionNaut miles runAvg speedWind from/ knotsBaromVisibWave heightAir tempDewpointWater temp
2014-Oct-31 17:31S 23°59' W 046°17'0 0.0
2014-Oct-31 16:25S 23°59' W 046°17'0 0.0
2014-Oct-31 15:31S 23°59' W 046°17'0 0.0
2014-Oct-31 14:31S 23°59' W 046°17'0 0.0
2014-Oct-31 13:28S 23°59' W 046°17'0 0.0
2014-Oct-31 12:31S 23°59' W 046°17'0 0.0
2014-Oct-31 11:31S 23°59' W 046°17'0 0.0
2014-Oct-31 10:31S 23°59' W 046°17'0 0.0
2014-Oct-31 09:31S 23°59' W 046°17'0 0.0
2014-Oct-31 08:31S 23°59' W 046°17'0 0.0
2014-Oct-31 07:31S 23°59' W 046°17'0 0.0
2014-Oct-31 06:31S 23°59' W 046°17'6 1.5
2014-Oct-31 02:33S 24°03' W 046°21'2 2.1
2014-Oct-31 01:27S 24°06' W 046°20'0 0.0
2014-Oct-30 09:24S 24°05' W 046°20'0 0.0
2014-Oct-30 07:12S 24°05' W 046°20'0 0.0
2014-Oct-30 04:12S 24°06' W 046°20'0 0.0
2014-Oct-30 01:12S 24°05' W 046°20'0 0.0
2014-Oct-29 17:28S 24°05' W 046°20'0 0.0
2014-Oct-29 14:22S 24°05' W 046°20'0 0.0
2014-Oct-29 12:28S 24°06' W 046°20'0 0.0
2014-Oct-29 11:22S 24°06' W 046°20'0 0.0
2014-Oct-29 10:16S 24°06' W 046°20'0 0.0
2014-Oct-29 09:28S 24°06' W 046°20'0 0.0
2014-Oct-29 08:28S 24°06' W 046°20'0 0.0
2014-Oct-29 07:22S 24°06' W 046°20'0 0.0
2014-Oct-29 04:22S 24°05' W 046°20'0 0.0
2014-Oct-29 03:22S 24°05' W 046°20'0 0.0
2014-Oct-29 02:28S 24°05' W 046°20'0 0.0
2014-Oct-28 21:07S 24°05' W 046°20'0 0.0
2014-Oct-28 20:13S 24°05' W 046°20'0 0.0
2014-Oct-28 15:07S 24°05' W 046°20'0 0.0
2014-Oct-28 10:10S 24°05' W 046°20'0 0.0
2014-Oct-28 07:22S 24°05' W 046°20'0 0.0
2014-Oct-28 06:31S 24°05' W 046°20'0 0.0
2014-Oct-28 04:28S 24°05' W 046°20'0 0.0
2014-Oct-28 03:22S 24°05' W 046°20'0 0.0
2014-Oct-28 00:10S 24°05' W 046°20'0 0.0
2014-Oct-27 21:28S 24°05' W 046°20'4 4.4
2014-Oct-27 20:33S 24°01' W 046°20'0 0.2
2014-Oct-27 19:32S 24°01' W 046°20'0 0.0
2014-Oct-27 18:32S 24°01' W 046°20'0 0.0
2014-Oct-27 17:32S 24°01' W 046°20'1 0.7
2014-Oct-27 16:33S 24°02' W 046°20'3 3.0
2014-Oct-27 15:33S 24°05' W 046°22'3 2.4
2014-Oct-27 14:27S 24°07' W 046°21'0 0.0
2014-Oct-27 13:15S 24°07' W 046°21'0 0.1
2014-Oct-27 12:21S 24°07' W 046°21'0 0.2
2014-Oct-27 11:27S 24°08' W 046°21'0 0.0
2014-Oct-27 10:27S 24°07' W 046°21'0 0.1
2014-Oct-27 09:27S 24°08' W 046°21'0 0.0
2014-Oct-27 08:21S 24°08' W 046°21'2 2.1
2014-Oct-27 07:33S 24°08' W 046°23'9 8.0
2014-Oct-27 06:29S 24°17' W 046°23'  

Dump ship's entire track history